createdAt,value
2022-12-10T00:02:49.041Z,96995.09
2022-12-10T00:05:50.432Z,97002.84
2022-12-10T00:08:51.860Z,97006.25
2022-12-10T00:11:53.278Z,97007.13
2022-12-10T00:14:54.775Z,97007.91
2022-12-10T00:17:56.185Z,97003.66
2022-12-10T00:20:57.522Z,97002.00
2022-12-10T00:23:59.052Z,97012.25
2022-12-10T00:27:00.730Z,97000.28
2022-12-10T00:30:02.175Z,97013.88
2022-12-10T00:33:03.521Z,97007.88
2022-12-10T00:36:05.497Z,97011.38
2022-12-10T00:39:06.943Z,97003.63
2022-12-10T00:42:08.371Z,97012.13
2022-12-10T00:45:09.811Z,97014.75
2022-12-10T00:48:11.321Z,97011.38
2022-12-10T00:51:22.372Z,97013.03
2022-12-10T00:54:23.716Z,97015.53
2022-12-10T00:57:25.103Z,97012.13
2022-12-10T01:00:26.490Z,97019.03
2022-12-10T01:03:27.857Z,97019.00
2022-12-10T01:06:30.180Z,97013.03
2022-12-10T01:09:31.618Z,97018.22
2022-12-10T01:12:32.976Z,97015.59
2022-12-10T01:15:37.493Z,97020.72
2022-12-10T01:18:38.906Z,97015.66
2022-12-10T01:21:40.337Z,97012.31
2022-12-10T01:24:41.718Z,97013.16
2022-12-10T01:27:43.136Z,97011.41
2022-12-10T01:30:44.550Z,97008.84
2022-12-10T01:33:45.988Z,96997.66
2022-12-10T01:36:49.585Z,96995.84
2022-12-10T01:39:50.956Z,96992.34
2022-12-10T01:42:52.297Z,96988.81
2022-12-10T01:45:53.697Z,97005.84
2022-12-10T01:48:55.210Z,97001.50
2022-12-10T01:51:56.713Z,97006.47
2022-12-10T01:54:58.147Z,97009.03
2022-12-10T01:57:59.575Z,97015.81
2022-12-10T02:01:06.293Z,97020.88
2022-12-10T02:04:15.931Z,97027.63
2022-12-10T02:07:17.246Z,97032.75
2022-12-10T02:10:22.174Z,97038.72
2022-12-10T02:13:35.808Z,97036.31
2022-12-10T02:17:03.471Z,97026.19
2022-12-10T02:20:15.345Z,97025.31
2022-12-10T02:23:19.843Z,97032.22
2022-12-10T02:26:36.518Z,97033.03
2022-12-10T02:29:37.952Z,97033.88
2022-12-10T02:32:41.304Z,97034.00
2022-12-10T02:35:42.830Z,97028.03
2022-12-10T02:38:44.195Z,97028.94
2022-12-10T02:41:49.618Z,97023.88
2022-12-10T02:44:51.013Z,97026.50
2022-12-10T02:47:52.516Z,97030.78
2022-12-10T02:50:53.895Z,97034.22
2022-12-10T02:54:05.894Z,97031.59
2022-12-10T02:57:16.808Z,97031.50
2022-12-10T03:00:21.593Z,97036.63
2022-12-10T03:03:24.040Z,97021.25
2022-12-10T03:06:28.678Z,97023.03
2022-12-10T03:09:37.658Z,97029.00
2022-12-10T03:12:40.312Z,97035.00
2022-12-10T03:15:41.944Z,97041.91
2022-12-10T03:18:43.396Z,97039.25
2022-12-10T03:21:44.763Z,97041.84
2022-12-10T03:24:46.122Z,97040.97
2022-12-10T03:27:48.533Z,97040.13
2022-12-10T03:30:49.975Z,97034.22
2022-12-10T03:33:51.435Z,97033.38
2022-12-10T03:36:52.865Z,97035.00
2022-12-10T03:39:54.277Z,97032.38
2022-12-10T03:42:55.646Z,97035.00
2022-12-10T03:45:57.032Z,97031.59
2022-12-10T03:48:58.719Z,97025.66
2022-12-10T03:52:00.072Z,97031.66
2022-12-10T03:55:04.270Z,97030.78
2022-12-10T03:58:05.687Z,97031.59
2022-12-10T04:01:07.075Z,97023.03
2022-12-10T04:04:08.617Z,97027.31
2022-12-10T04:07:10.123Z,97025.59
2022-12-10T04:10:11.621Z,97031.50
2022-12-10T04:13:31.911Z,97031.50
2022-12-10T04:16:33.649Z,97034.91
2022-12-10T04:19:35.035Z,97030.66
2022-12-10T04:22:55.237Z,97025.47
2022-12-10T04:26:15.192Z,97024.69
2022-12-10T04:29:16.558Z,97018.78
2022-12-10T04:32:17.985Z,97012.78
2022-12-10T04:35:19.398Z,97024.81
2022-12-10T04:38:20.890Z,97024.75
2022-12-10T04:41:22.262Z,97022.19
2022-12-10T04:44:23.692Z,97028.22
2022-12-10T04:47:25.092Z,97033.38
2022-12-10T04:50:26.426Z,97030.81
2022-12-10T04:53:27.773Z,97029.16
2022-12-10T04:56:29.121Z,97029.22
2022-12-10T04:59:30.525Z,97025.72
2022-12-10T05:02:31.946Z,97030.06
2022-12-10T05:05:34.609Z,97015.59
2022-12-10T05:08:36.288Z,97020.69
2022-12-10T05:11:37.739Z,97030.06
2022-12-10T05:14:39.135Z,97024.94
2022-12-10T05:17:40.578Z,97033.47
2022-12-10T05:20:41.906Z,97028.31
2022-12-10T05:23:44.161Z,97035.19
2022-12-10T05:26:45.498Z,97045.38
2022-12-10T05:29:46.869Z,97039.41
2022-12-10T05:32:48.296Z,97043.72
2022-12-10T05:35:53.590Z,97033.41
2022-12-10T05:38:55.313Z,97041.03
2022-12-10T05:41:56.680Z,97043.63
2022-12-10T05:44:58.044Z,97045.44
2022-12-10T05:47:59.451Z,97050.63
2022-12-10T05:51:04.601Z,97058.28
2022-12-10T05:54:06.306Z,97054.78
2022-12-10T05:57:07.693Z,97061.63
2022-12-10T06:00:09.677Z,97059.06
2022-12-10T06:03:11.359Z,97067.59
2022-12-10T06:06:12.796Z,97070.16
2022-12-10T06:09:14.369Z,97064.97
2022-12-10T06:12:15.724Z,97070.16
2022-12-10T06:15:17.055Z,97079.50
2022-12-10T06:18:18.443Z,97076.97
2022-12-10T06:21:19.965Z,97082.09
2022-12-10T06:24:21.338Z,97088.88
2022-12-10T06:27:22.702Z,97093.09
2022-12-10T06:30:24.121Z,97089.75
2022-12-10T06:33:25.518Z,97089.75
2022-12-10T06:36:26.879Z,97099.19
2022-12-10T06:39:28.273Z,97112.88
2022-12-10T06:42:29.650Z,97112.94
2022-12-10T06:45:31.031Z,97112.97
2022-12-10T06:48:32.419Z,97124.13
2022-12-10T06:51:33.960Z,97119.00
2022-12-10T06:54:35.332Z,97125.78
2022-12-10T06:57:36.758Z,97133.47
2022-12-10T07:00:38.212Z,97142.06
2022-12-10T07:03:40.105Z,97142.91
2022-12-10T07:06:41.748Z,97140.34
2022-12-10T07:09:43.190Z,97135.16
2022-12-10T07:12:44.883Z,97140.34
2022-12-10T07:15:46.369Z,97131.88
2022-12-10T07:18:52.055Z,97136.09
2022-12-10T07:21:54.093Z,97136.16
2022-12-10T07:24:55.539Z,97148.09
2022-12-10T07:27:57.974Z,97151.47
2022-12-10T07:31:05.631Z,97158.38
2022-12-10T07:34:07.150Z,97163.53
2022-12-10T07:37:08.500Z,97173.75
2022-12-10T07:40:10.485Z,97166.06
2022-12-10T07:43:12.446Z,97166.06
2022-12-10T07:46:17.024Z,97164.34
2022-12-10T07:49:18.483Z,97167.78
2022-12-10T07:52:19.862Z,97174.63
2022-12-10T07:55:21.202Z,97176.34
2022-12-10T07:58:22.569Z,97183.22
2022-12-10T08:01:24.738Z,97170.44
2022-12-10T08:04:28.364Z,97173.88
2022-12-10T08:07:29.712Z,97176.53
2022-12-10T08:10:31.180Z,97175.66
2022-12-10T08:13:32.676Z,97180.81
2022-12-10T08:16:34.065Z,97182.53
2022-12-10T08:19:35.534Z,97173.97
2022-12-10T08:22:37.470Z,97191.94
2022-12-10T08:25:40.603Z,97192.84
2022-12-10T08:28:42.208Z,97192.84
2022-12-10T08:31:43.651Z,97195.41
2022-12-10T08:34:45.313Z,97197.13
2022-12-10T08:37:46.676Z,97197.06
2022-12-10T08:40:48.019Z,97199.63
2022-12-10T08:43:49.456Z,97203.03
2022-12-10T08:46:50.834Z,97202.16
2022-12-10T08:49:52.223Z,97203.03
2022-12-10T08:52:53.611Z,97208.16
2022-12-10T08:55:54.985Z,97211.63
2022-12-10T08:58:56.450Z,97212.50
2022-12-10T09:01:57.919Z,97209.16
2022-12-10T09:04:59.331Z,97218.63
2022-12-10T09:08:00.746Z,97218.56
2022-12-10T09:11:09.158Z,97226.31
2022-12-10T09:14:10.555Z,97227.31
2022-12-10T09:17:12.041Z,97227.97
2022-12-10T09:20:13.837Z,97230.53
2022-12-10T09:23:15.246Z,97235.66
2022-12-10T09:26:16.703Z,97234.03
2022-12-10T09:29:18.057Z,97240.91
2022-12-10T09:32:19.453Z,97240.91
2022-12-10T09:35:20.850Z,97238.34
2022-12-10T09:38:22.267Z,97242.56
2022-12-10T09:41:35.790Z,97248.59
2022-12-10T09:44:40.222Z,97245.13
2022-12-10T09:47:46.331Z,97252.91
2022-12-10T09:50:54.596Z,97255.41
2022-12-10T09:53:59.466Z,97254.53
2022-12-10T09:57:00.952Z,97258.75
2022-12-10T10:00:08.558Z,97260.47
2022-12-10T10:03:13.331Z,97258.03
2022-12-10T10:06:14.769Z,97252.94
2022-12-10T10:09:16.181Z,97251.13
2022-12-10T10:12:17.580Z,97246.03
2022-12-10T10:15:19.981Z,97255.47
2022-12-10T10:18:40.561Z,97256.41
2022-12-10T10:21:48.452Z,97258.03
2022-12-10T10:24:49.820Z,97255.47
2022-12-10T10:27:51.236Z,97260.66
2022-12-10T10:30:52.831Z,97255.59
2022-12-10T10:33:58.444Z,97263.38
2022-12-10T10:36:59.928Z,97263.16
2022-12-10T10:40:01.366Z,97262.53
2022-12-10T10:43:02.941Z,97267.75
2022-12-10T10:46:07.747Z,97263.47
2022-12-10T10:49:19.395Z,97256.66
2022-12-10T10:52:20.764Z,97262.59
2022-12-10T10:55:31.818Z,97266.88
2022-12-10T10:58:33.258Z,97273.66
2022-12-10T11:01:44.715Z,97272.66
2022-12-10T11:04:46.944Z,97271.78
2022-12-10T11:07:48.355Z,97268.44
2022-12-10T11:10:50.490Z,97271.09
2022-12-10T11:13:51.893Z,97265.16
2022-12-10T11:17:05.310Z,97266.81
2022-12-10T11:20:17.344Z,97266.94
2022-12-10T11:23:20.748Z,97270.09
2022-12-10T11:26:41.686Z,97279.78
2022-12-10T11:29:43.314Z,97283.06
2022-12-10T11:32:44.717Z,97281.31
2022-12-10T11:35:49.050Z,97286.41
2022-12-10T11:39:09.274Z,97284.69
2022-12-10T11:42:14.556Z,97290.53
2022-12-10T11:45:19.013Z,97298.19
2022-12-10T11:48:20.339Z,97299.78
2022-12-10T11:51:28.171Z,97293.69
2022-12-10T11:54:29.520Z,97303.19
2022-12-10T11:57:33.932Z,97317.72
2022-12-10T12:00:43.280Z,97309.94
2022-12-10T12:04:01.570Z,97316.00
2022-12-10T12:07:12.982Z,97321.13
2022-12-10T12:10:14.642Z,97319.34
2022-12-10T12:13:17.106Z,97316.66
2022-12-10T12:16:50.838Z,97314.91
2022-12-10T12:19:53.381Z,97314.91
2022-12-10T12:23:03.255Z,97320.97
2022-12-10T12:26:05.438Z,97326.09
2022-12-10T12:29:06.754Z,97321.06
2022-12-10T12:32:13.146Z,97327.03
2022-12-10T12:35:21.646Z,97330.38
2022-12-10T12:38:22.957Z,97332.16
2022-12-10T12:41:32.928Z,97331.19
2022-12-10T12:44:42.894Z,97338.97
2022-12-10T12:47:58.071Z,97339.03
2022-12-10T12:51:02.438Z,97350.91
2022-12-10T12:54:03.836Z,97344.06
2022-12-10T12:57:07.212Z,97341.63
2022-12-10T13:00:12.988Z,97350.19
2022-12-10T13:03:33.188Z,97350.06
2022-12-10T13:06:35.414Z,97355.09
2022-12-10T13:09:43.591Z,97357.59
2022-12-10T13:12:49.011Z,97367.91
2022-12-10T13:15:50.510Z,97364.41
2022-12-10T13:18:55.257Z,97370.41
2022-12-10T13:22:02.951Z,97379.00
2022-12-10T13:25:07.067Z,97379.72
2022-12-10T13:28:23.757Z,97385.78
2022-12-10T13:31:35.950Z,97390.81
2022-12-10T13:34:38.069Z,97390.78
2022-12-10T13:37:54.713Z,97391.69
2022-12-10T13:41:24.760Z,97396.72
2022-12-10T13:44:26.252Z,97396.69
2022-12-10T13:47:36.815Z,97399.28
2022-12-10T13:50:50.787Z,97401.91
2022-12-10T13:53:52.176Z,97411.31
2022-12-10T13:56:56.605Z,97413.00
2022-12-10T14:00:18.231Z,97417.28
2022-12-10T14:03:19.987Z,97425.78
2022-12-10T14:06:21.965Z,97436.94
2022-12-10T14:09:27.683Z,97437.81
2022-12-10T14:12:33.141Z,97442.09
2022-12-10T14:15:36.047Z,97440.38
2022-12-10T14:18:37.506Z,97440.38
2022-12-10T14:21:39.944Z,97448.91
2022-12-10T14:24:44.211Z,97454.06
2022-12-10T14:27:47.653Z,97454.03
2022-12-10T14:30:49.504Z,97463.38
2022-12-10T14:33:50.957Z,97463.38
2022-12-10T14:36:56.549Z,97459.97
2022-12-10T14:39:58.034Z,97465.84
2022-12-10T14:43:13.440Z,97471.03
2022-12-10T14:46:16.297Z,97473.53
2022-12-10T14:49:21.680Z,97474.47
2022-12-10T14:52:33.804Z,97483.03
2022-12-10T14:55:35.261Z,97484.66
2022-12-10T14:58:42.256Z,97483.88
2022-12-10T15:01:44.511Z,97486.41
2022-12-10T15:04:47.266Z,97486.41
2022-12-10T15:08:01.045Z,97488.94
2022-12-10T15:11:02.675Z,97496.59
2022-12-10T15:14:04.063Z,97499.06
2022-12-10T15:17:05.458Z,97502.47
2022-12-10T15:20:20.169Z,97510.28
2022-12-10T15:23:21.568Z,97502.56
2022-12-10T15:26:25.535Z,97500.81
2022-12-10T15:29:28.326Z,97503.25
2022-12-10T15:32:30.173Z,97509.31
2022-12-10T15:35:35.645Z,97507.59
2022-12-10T15:38:38.107Z,97504.19
2022-12-10T15:41:44.127Z,97513.41
2022-12-10T15:44:46.330Z,97508.28
2022-12-10T15:47:47.774Z,97507.47
2022-12-10T15:50:49.818Z,97509.19
2022-12-10T15:53:51.218Z,97507.50
2022-12-10T15:56:52.596Z,97517.78
2022-12-10T15:59:55.475Z,97527.16
2022-12-10T16:02:58.005Z,97527.16
2022-12-10T16:05:59.475Z,97533.25
2022-12-10T16:09:00.917Z,97536.53
2022-12-10T16:12:02.648Z,97545.09
2022-12-10T16:15:04.333Z,97539.09
2022-12-10T16:18:06.116Z,97545.03
2022-12-10T16:21:07.913Z,97547.56
2022-12-10T16:24:09.683Z,97539.03
2022-12-10T16:27:13.117Z,97551.72
2022-12-10T16:30:18.696Z,97561.94
2022-12-10T16:33:21.093Z,97560.25
2022-12-10T16:36:22.461Z,97558.47
2022-12-10T16:39:29.249Z,97569.56
2022-12-10T16:42:32.313Z,97563.59
2022-12-10T16:45:37.501Z,97564.44
2022-12-10T16:48:39.045Z,97571.19
2022-12-10T16:51:40.484Z,97572.03
2022-12-10T16:54:42.030Z,97583.16
2022-12-10T16:57:45.608Z,97583.22
2022-12-10T17:00:48.475Z,97578.94
2022-12-10T17:03:50.388Z,97578.94
2022-12-10T17:06:51.863Z,97581.41
2022-12-10T17:09:58.629Z,97586.53
2022-12-10T17:13:02.961Z,97593.38
2022-12-10T17:16:04.630Z,97593.28
2022-12-10T17:19:06.202Z,97591.56
2022-12-10T17:22:07.860Z,97595.06
2022-12-10T17:25:09.310Z,97591.66
2022-12-10T17:28:13.181Z,97595.84
2022-12-10T17:31:14.688Z,97593.41
2022-12-10T17:34:16.427Z,97595.94
2022-12-10T17:37:19.025Z,97602.00
2022-12-10T17:40:21.488Z,97597.69
2022-12-10T17:43:22.937Z,97609.63
2022-12-10T17:46:25.113Z,97619.84
2022-12-10T17:49:26.528Z,97615.50
2022-12-10T17:52:28.039Z,97611.31
2022-12-10T17:55:29.507Z,97618.03
2022-12-10T17:58:30.965Z,97608.63
2022-12-10T18:01:32.393Z,97607.56
2022-12-10T18:04:33.819Z,97611.00
2022-12-10T18:07:35.293Z,97602.47
2022-12-10T18:10:37.601Z,97613.56
2022-12-10T18:13:42.248Z,97616.97
2022-12-10T18:16:47.598Z,97618.66
2022-12-10T18:19:53.241Z,97617.03
2022-12-10T18:22:55.178Z,97621.22
2022-12-10T18:25:56.669Z,97625.50
2022-12-10T18:28:59.602Z,97635.03
2022-12-10T18:32:01.332Z,97635.09
2022-12-10T18:35:02.744Z,97643.66
2022-12-10T18:38:04.156Z,97650.56
2022-12-10T18:41:08.619Z,97651.50
2022-12-10T18:44:10.062Z,97650.50
2022-12-10T18:47:12.716Z,97646.25
2022-12-10T18:50:21.319Z,97648.78
2022-12-10T18:53:22.766Z,97652.28
2022-12-10T18:56:25.130Z,97656.56
2022-12-10T18:59:26.581Z,97654.75
2022-12-10T19:02:28.025Z,97654.75
2022-12-10T19:05:29.453Z,97661.69
2022-12-10T19:08:30.893Z,97661.63
2022-12-10T19:11:32.369Z,97655.69
2022-12-10T19:14:33.870Z,97663.28
2022-12-10T19:17:35.714Z,97663.19
2022-12-10T19:20:37.306Z,97663.94
2022-12-10T19:23:38.893Z,97661.38
2022-12-10T19:26:40.953Z,97662.19
2022-12-10T19:29:42.400Z,97667.22
2022-12-10T19:32:43.878Z,97667.25
2022-12-10T19:35:48.257Z,97665.56
2022-12-10T19:38:49.645Z,97662.19
2022-12-10T19:41:51.525Z,97663.16
2022-12-10T19:44:52.929Z,97668.22
2022-12-10T19:47:57.136Z,97669.06
2022-12-10T19:50:58.500Z,97668.13
2022-12-10T19:53:59.880Z,97669.06
2022-12-10T19:57:01.260Z,97678.47
2022-12-10T20:00:03.375Z,97672.22
2022-12-10T20:03:04.826Z,97680.88
2022-12-10T20:06:35.528Z,97681.63
2022-12-10T20:09:36.891Z,97679.13
2022-12-10T20:12:38.500Z,97680.81
2022-12-10T20:15:45.441Z,97677.25
2022-12-10T20:18:48.592Z,97676.41
2022-12-10T20:21:50.097Z,97676.38
2022-12-10T20:24:51.578Z,97680.44
2022-12-10T20:27:53.455Z,97682.09
2022-12-10T20:30:55.009Z,97687.97
2022-12-10T20:33:56.536Z,97678.63
2022-12-10T20:36:58.266Z,97675.09
2022-12-10T20:40:29.889Z,97675.94
2022-12-10T20:43:21.113Z,97669.84
2022-12-10T20:46:23.457Z,97677.53
2022-12-10T20:49:24.970Z,97677.50
2022-12-10T20:52:26.351Z,97675.97
2022-12-10T20:55:27.716Z,97668.25
2022-12-10T20:58:29.109Z,97675.81
2022-12-10T21:01:31.096Z,97674.16
2022-12-10T21:04:32.626Z,97677.53
2022-12-10T21:07:34.320Z,97676.72
2022-12-10T21:10:54.561Z,97673.34
2022-12-10T21:13:55.951Z,97674.16
2022-12-10T21:16:58.701Z,97669.78
2022-12-10T21:20:00.157Z,97672.25
2022-12-10T21:23:01.518Z,97673.75
2022-12-10T21:26:02.847Z,97677.84
2022-12-10T21:29:04.600Z,97687.88
2022-12-10T21:32:05.949Z,97686.00
2022-12-10T21:35:07.983Z,97683.19
2022-12-10T21:38:09.606Z,97676.13
2022-12-10T21:41:29.721Z,97676.03
2022-12-10T21:44:32.900Z,97671.69
2022-12-10T21:47:34.407Z,97673.16
2022-12-10T21:50:36.315Z,97671.31
2022-12-10T21:53:37.987Z,97677.88
2022-12-10T21:56:39.929Z,97672.63
2022-12-10T21:59:41.454Z,97676.81
2022-12-10T22:02:43.051Z,97675.09
2022-12-10T22:05:45.439Z,97680.06
2022-12-10T22:08:47.359Z,97679.19
2022-12-10T22:11:49.201Z,97686.00
2022-12-10T22:14:51.685Z,97684.22
2022-12-10T22:17:53.425Z,97684.91
2022-12-10T22:20:55.832Z,97682.22
2022-12-10T22:23:57.262Z,97686.34
2022-12-10T22:26:58.605Z,97683.75
2022-12-10T22:30:00.355Z,97687.03
2022-12-10T22:33:01.774Z,97678.63
2022-12-10T22:36:03.174Z,97682.03
2022-12-10T22:39:04.702Z,97689.06
2022-12-10T22:42:06.054Z,97690.97
2022-12-10T22:45:08.076Z,97680.66
2022-12-10T22:48:09.965Z,97681.59
2022-12-10T22:51:11.314Z,97675.81
2022-12-10T22:54:12.671Z,97681.06
2022-12-10T22:57:13.993Z,97674.31
2022-12-10T23:00:16.596Z,97671.69
2022-12-10T23:03:17.976Z,97660.44
2022-12-10T23:06:19.580Z,97672.25
2022-12-10T23:09:21.026Z,97672.25
2022-12-10T23:12:41.124Z,97673.06
2022-12-10T23:15:42.583Z,97676.63
2022-12-10T23:18:44.127Z,97670.59
2022-12-10T23:21:45.608Z,97672.16
2022-12-10T23:24:47.045Z,97675.53
2022-12-10T23:27:48.677Z,97683.28
2022-12-10T23:30:56.968Z,97682.50
2022-12-10T23:33:58.344Z,97679.94
2022-12-10T23:36:59.788Z,97680.88
2022-12-10T23:40:01.489Z,97679.19
2022-12-10T23:43:02.920Z,97677.53
2022-12-10T23:46:05.005Z,97666.41
2022-12-10T23:49:06.542Z,97664.84
2022-12-10T23:52:09.920Z,97661.53
2022-12-10T23:55:12.127Z,97650.47
2022-12-10T23:58:13.867Z,97645.59
